sensor_id;sensor_type;location;lat;lon;timestamp;temperature;humidity
18597;DHT22;9428;50.950;6.912;2023-08-06T00:02:05;16.90;99.90
18597;DHT22;9428;50.950;6.912;2023-08-06T00:04:52;16.80;99.90
18597;DHT22;9428;50.950;6.912;2023-08-06T00:07:40;16.80;99.90
18597;DHT22;9428;50.950;6.912;2023-08-06T00:10:28;16.60;99.90
18597;DHT22;9428;50.950;6.912;2023-08-06T00:13:15;16.70;99.90
18597;DHT22;9428;50.950;6.912;2023-08-06T00:16:10;16.60;99.90
18597;DHT22;9428;50.950;6.912;2023-08-06T00:18:57;16.60;99.90
18597;DHT22;9428;50.950;6.912;2023-08-06T00:21:44;16.70;99.90
18597;DHT22;9428;50.950;6.912;2023-08-06T00:24:31;16.70;99.90
18597;DHT22;9428;50.950;6.912;2023-08-06T00:27:20;16.60;99.90
18597;DHT22;9428;50.950;6.912;2023-08-06T00:30:07;16.60;99.90
18597;DHT22;9428;50.950;6.912;2023-08-06T00:32:55;16.50;99.90
18597;DHT22;9428;50.950;6.912;2023-08-06T00:35:42;16.50;99.90
18597;DHT22;9428;50.950;6.912;2023-08-06T00:38:29;16.50;99.90
18597;DHT22;9428;50.950;6.912;2023-08-06T00:41:16;16.50;99.90
18597;DHT22;9428;50.950;6.912;2023-08-06T00:44:05;16.50;99.90
18597;DHT22;9428;50.950;6.912;2023-08-06T00:46:52;16.50;99.90
18597;DHT22;9428;50.950;6.912;2023-08-06T00:49:39;16.40;99.90
18597;DHT22;9428;50.950;6.912;2023-08-06T00:52:27;16.30;99.90
18597;DHT22;9428;50.950;6.912;2023-08-06T00:55:15;16.40;99.90
18597;DHT22;9428;50.950;6.912;2023-08-06T00:58:03;16.50;99.90
18597;DHT22;9428;50.950;6.912;2023-08-06T01:00:52;16.50;99.90
18597;DHT22;9428;50.950;6.912;2023-08-06T01:03:39;16.50;99.90
18597;DHT22;9428;50.950;6.912;2023-08-06T01:06:35;16.60;99.90
18597;DHT22;9428;50.950;6.912;2023-08-06T01:09:35;16.60;99.90
18597;DHT22;9428;50.950;6.912;2023-08-06T01:12:33;16.50;99.90
18597;DHT22;9428;50.950;6.912;2023-08-06T01:15:26;16.50;99.90
18597;DHT22;9428;50.950;6.912;2023-08-06T01:18:15;16.70;99.90
18597;DHT22;9428;50.950;6.912;2023-08-06T01:21:04;16.50;99.90
18597;DHT22;9428;50.950;6.912;2023-08-06T01:23:52;16.50;99.90
18597;DHT22;9428;50.950;6.912;2023-08-06T01:26:43;16.60;99.90
18597;DHT22;9428;50.950;6.912;2023-08-06T01:29:35;16.40;99.90
18597;DHT22;9428;50.950;6.912;2023-08-06T01:32:25;16.40;99.90
18597;DHT22;9428;50.950;6.912;2023-08-06T01:35:15;16.40;99.90
18597;DHT22;9428;50.950;6.912;2023-08-06T01:38:04;16.50;99.90
18597;DHT22;9428;50.950;6.912;2023-08-06T01:40:51;16.40;99.90
18597;DHT22;9428;50.950;6.912;2023-08-06T01:43:38;16.40;99.90
18597;DHT22;9428;50.950;6.912;2023-08-06T01:46:26;16.40;99.90
18597;DHT22;9428;50.950;6.912;2023-08-06T01:49:13;16.50;99.90
18597;DHT22;9428;50.950;6.912;2023-08-06T01:52:00;16.50;99.90
18597;DHT22;9428;50.950;6.912;2023-08-06T01:54:49;16.50;99.90
18597;DHT22;9428;50.950;6.912;2023-08-06T01:57:36;16.40;99.90
18597;DHT22;9428;50.950;6.912;2023-08-06T02:00:23;16.50;99.90
18597;DHT22;9428;50.950;6.912;2023-08-06T02:03:10;16.40;99.90
18597;DHT22;9428;50.950;6.912;2023-08-06T02:05:58;16.40;99.90
18597;DHT22;9428;50.950;6.912;2023-08-06T02:08:45;16.40;99.90
18597;DHT22;9428;50.950;6.912;2023-08-06T02:11:33;16.40;99.90
18597;DHT22;9428;50.950;6.912;2023-08-06T02:14:21;16.40;99.90
18597;DHT22;9428;50.950;6.912;2023-08-06T02:17:08;16.30;99.90
18597;DHT22;9428;50.950;6.912;2023-08-06T02:19:55;16.30;99.90
18597;DHT22;9428;50.950;6.912;2023-08-06T02:22:42;16.30;99.90
18597;DHT22;9428;50.950;6.912;2023-08-06T02:25:30;16.40;99.90
18597;DHT22;9428;50.950;6.912;2023-08-06T02:28:18;16.30;99.90
18597;DHT22;9428;50.950;6.912;2023-08-06T02:31:05;16.30;99.90
18597;DHT22;9428;50.950;6.912;2023-08-06T02:33:53;16.30;99.90
18597;DHT22;9428;50.950;6.912;2023-08-06T02:36:41;16.40;99.90
18597;DHT22;9428;50.950;6.912;2023-08-06T02:39:28;16.50;99.90
18597;DHT22;9428;50.950;6.912;2023-08-06T02:42:15;16.40;99.90
18597;DHT22;9428;50.950;6.912;2023-08-06T02:45:05;16.40;99.90
18597;DHT22;9428;50.950;6.912;2023-08-06T02:47:52;16.40;99.90
18597;DHT22;9428;50.950;6.912;2023-08-06T02:50:40;16.50;99.90
18597;DHT22;9428;50.950;6.912;2023-08-06T02:53:27;16.40;99.90
18597;DHT22;9428;50.950;6.912;2023-08-06T02:56:14;16.50;99.90
18597;DHT22;9428;50.950;6.912;2023-08-06T02:59:01;16.40;99.90
18597;DHT22;9428;50.950;6.912;2023-08-06T03:01:50;16.50;99.90
18597;DHT22;9428;50.950;6.912;2023-08-06T03:04:37;16.40;99.90
18597;DHT22;9428;50.950;6.912;2023-08-06T03:07:24;16.40;99.90
18597;DHT22;9428;50.950;6.912;2023-08-06T03:10:12;16.50;99.90
18597;DHT22;9428;50.950;6.912;2023-08-06T03:12:59;16.40;99.90
18597;DHT22;9428;50.950;6.912;2023-08-06T03:15:52;16.40;99.90
18597;DHT22;9428;50.950;6.912;2023-08-06T03:18:42;16.50;99.90
18597;DHT22;9428;50.950;6.912;2023-08-06T03:21:29;16.50;99.90
18597;DHT22;9428;50.950;6.912;2023-08-06T03:24:16;16.50;99.90
18597;DHT22;9428;50.950;6.912;2023-08-06T03:27:03;16.60;99.90
18597;DHT22;9428;50.950;6.912;2023-08-06T03:29:51;16.50;99.90
18597;DHT22;9428;50.950;6.912;2023-08-06T03:32:38;16.40;99.90
18597;DHT22;9428;50.950;6.912;2023-08-06T03:35:26;16.30;99.90
18597;DHT22;9428;50.950;6.912;2023-08-06T03:38:14;16.30;99.90
18597;DHT22;9428;50.950;6.912;2023-08-06T03:41:01;16.40;99.90
18597;DHT22;9428;50.950;6.912;2023-08-06T03:43:48;16.10;99.90
18597;DHT22;9428;50.950;6.912;2023-08-06T03:46:36;16.30;99.90
18597;DHT22;9428;50.950;6.912;2023-08-06T03:49:23;16.20;99.90
18597;DHT22;9428;50.950;6.912;2023-08-06T03:52:12;16.10;99.90
18597;DHT22;9428;50.950;6.912;2023-08-06T03:54:59;16.00;99.90
18597;DHT22;9428;50.950;6.912;2023-08-06T03:57:46;16.10;99.90
18597;DHT22;9428;50.950;6.912;2023-08-06T04:00:34;16.20;99.90
18597;DHT22;9428;50.950;6.912;2023-08-06T04:03:21;16.10;99.90
18597;DHT22;9428;50.950;6.912;2023-08-06T04:06:08;16.20;99.90
18597;DHT22;9428;50.950;6.912;2023-08-06T04:08:57;16.10;99.90
18597;DHT22;9428;50.950;6.912;2023-08-06T04:11:44;16.10;99.90
18597;DHT22;9428;50.950;6.912;2023-08-06T04:14:31;16.10;99.90
18597;DHT22;9428;50.950;6.912;2023-08-06T04:17:19;16.00;99.90
18597;DHT22;9428;50.950;6.912;2023-08-06T04:20:07;16.00;99.90
18597;DHT22;9428;50.950;6.912;2023-08-06T04:22:55;15.90;99.90
18597;DHT22;9428;50.950;6.912;2023-08-06T04:25:43;16.10;99.90
18597;DHT22;9428;50.950;6.912;2023-08-06T04:28:31;16.00;99.90
18597;DHT22;9428;50.950;6.912;2023-08-06T04:31:18;16.00;99.90
18597;DHT22;9428;50.950;6.912;2023-08-06T04:34:07;15.90;99.90
18597;DHT22;9428;50.950;6.912;2023-08-06T04:36:55;16.00;99.90
18597;DHT22;9428;50.950;6.912;2023-08-06T04:39:42;16.00;99.90
18597;DHT22;9428;50.950;6.912;2023-08-06T04:42:30;16.10;99.90
18597;DHT22;9428;50.950;6.912;2023-08-06T04:45:18;16.00;99.90
18597;DHT22;9428;50.950;6.912;2023-08-06T04:48:05;16.10;99.90
18597;DHT22;9428;50.950;6.912;2023-08-06T04:50:52;16.10;99.90
18597;DHT22;9428;50.950;6.912;2023-08-06T04:53:40;16.10;99.90
18597;DHT22;9428;50.950;6.912;2023-08-06T04:56:28;16.10;99.90
18597;DHT22;9428;50.950;6.912;2023-08-06T04:59:16;16.20;99.90
18597;DHT22;9428;50.950;6.912;2023-08-06T05:02:04;16.10;99.90
18597;DHT22;9428;50.950;6.912;2023-08-06T05:04:51;16.10;99.90
18597;DHT22;9428;50.950;6.912;2023-08-06T05:07:38;16.10;99.90
18597;DHT22;9428;50.950;6.912;2023-08-06T05:10:26;16.20;99.90
18597;DHT22;9428;50.950;6.912;2023-08-06T05:13:13;16.20;99.90
18597;DHT22;9428;50.950;6.912;2023-08-06T05:16:02;16.10;99.90
18597;DHT22;9428;50.950;6.912;2023-08-06T05:18:49;16.20;99.90
18597;DHT22;9428;50.950;6.912;2023-08-06T05:21:36;16.30;99.90
18597;DHT22;9428;50.950;6.912;2023-08-06T05:24:23;16.30;99.90
18597;DHT22;9428;50.950;6.912;2023-08-06T05:27:11;16.40;99.90
18597;DHT22;9428;50.950;6.912;2023-08-06T05:29:58;16.50;99.90
18597;DHT22;9428;50.950;6.912;2023-08-06T05:32:46;16.40;99.90
18597;DHT22;9428;50.950;6.912;2023-08-06T05:35:34;16.30;99.90
18597;DHT22;9428;50.950;6.912;2023-08-06T05:38:21;16.30;99.90
18597;DHT22;9428;50.950;6.912;2023-08-06T05:41:08;16.40;99.90
18597;DHT22;9428;50.950;6.912;2023-08-06T05:43:55;16.50;99.90
18597;DHT22;9428;50.950;6.912;2023-08-06T05:46:42;16.40;99.90
18597;DHT22;9428;50.950;6.912;2023-08-06T05:49:31;16.30;99.90
18597;DHT22;9428;50.950;6.912;2023-08-06T05:52:18;16.40;99.90
18597;DHT22;9428;50.950;6.912;2023-08-06T05:55:06;16.40;99.90
18597;DHT22;9428;50.950;6.912;2023-08-06T05:57:54;16.50;99.90
18597;DHT22;9428;50.950;6.912;2023-08-06T06:00:41;16.60;99.90
18597;DHT22;9428;50.950;6.912;2023-08-06T06:03:28;16.60;99.90
18597;DHT22;9428;50.950;6.912;2023-08-06T06:06:17;16.60;99.90
18597;DHT22;9428;50.950;6.912;2023-08-06T06:09:04;16.60;99.90
18597;DHT22;9428;50.950;6.912;2023-08-06T06:11:51;16.50;99.90
18597;DHT22;9428;50.950;6.912;2023-08-06T06:14:39;16.60;99.90
18597;DHT22;9428;50.950;6.912;2023-08-06T06:17:26;16.60;99.90
18597;DHT22;9428;50.950;6.912;2023-08-06T06:20:13;16.60;99.90
18597;DHT22;9428;50.950;6.912;2023-08-06T06:23:02;16.60;99.90
18597;DHT22;9428;50.950;6.912;2023-08-06T06:25:49;16.60;99.90
18597;DHT22;9428;50.950;6.912;2023-08-06T06:28:37;16.60;99.90
18597;DHT22;9428;50.950;6.912;2023-08-06T06:31:24;16.50;99.90
18597;DHT22;9428;50.950;6.912;2023-08-06T06:34:11;17.70;99.90
18597;DHT22;9428;50.950;6.912;2023-08-06T06:36:59;16.70;99.90
18597;DHT22;9428;50.950;6.912;2023-08-06T06:39:47;16.60;99.90
18597;DHT22;9428;50.950;6.912;2023-08-06T06:42:35;16.60;99.90
18597;DHT22;9428;50.950;6.912;2023-08-06T06:45:22;16.60;99.90
18597;DHT22;9428;50.950;6.912;2023-08-06T06:48:09;16.60;99.90
18597;DHT22;9428;50.950;6.912;2023-08-06T06:50:56;16.60;99.90
18597;DHT22;9428;50.950;6.912;2023-08-06T06:53:43;16.70;99.90
18597;DHT22;9428;50.950;6.912;2023-08-06T06:56:32;16.60;99.90
18597;DHT22;9428;50.950;6.912;2023-08-06T06:59:19;16.50;99.90
18597;DHT22;9428;50.950;6.912;2023-08-06T07:02:06;16.50;99.90
18597;DHT22;9428;50.950;6.912;2023-08-06T07:04:54;16.50;99.90
18597;DHT22;9428;50.950;6.912;2023-08-06T07:07:41;16.60;99.90
18597;DHT22;9428;50.950;6.912;2023-08-06T07:10:28;16.50;99.90
18597;DHT22;9428;50.950;6.912;2023-08-06T07:13:16;16.50;99.90
18597;DHT22;9428;50.950;6.912;2023-08-06T07:16:04;16.50;99.90
18597;DHT22;9428;50.950;6.912;2023-08-06T07:18:51;16.40;99.90
18597;DHT22;9428;50.950;6.912;2023-08-06T07:21:39;16.40;99.90
18597;DHT22;9428;50.950;6.912;2023-08-06T07:24:26;16.40;99.90
18597;DHT22;9428;50.950;6.912;2023-08-06T07:27:13;16.50;99.90
18597;DHT22;9428;50.950;6.912;2023-08-06T07:30:02;16.50;99.90
18597;DHT22;9428;50.950;6.912;2023-08-06T07:32:51;16.50;99.90
18597;DHT22;9428;50.950;6.912;2023-08-06T07:35:39;16.50;99.90
18597;DHT22;9428;50.950;6.912;2023-08-06T07:38:26;16.50;99.90
18597;DHT22;9428;50.950;6.912;2023-08-06T07:41:14;16.50;99.90
18597;DHT22;9428;50.950;6.912;2023-08-06T07:44:01;16.70;99.90
18597;DHT22;9428;50.950;6.912;2023-08-06T07:46:50;16.80;99.90
18597;DHT22;9428;50.950;6.912;2023-08-06T07:49:37;17.00;99.90
18597;DHT22;9428;50.950;6.912;2023-08-06T07:52:24;16.90;99.90
18597;DHT22;9428;50.950;6.912;2023-08-06T07:55:12;17.00;99.90
18597;DHT22;9428;50.950;6.912;2023-08-06T07:57:59;17.00;99.90
18597;DHT22;9428;50.950;6.912;2023-08-06T08:00:47;17.00;99.90
18597;DHT22;9428;50.950;6.912;2023-08-06T08:03:35;16.90;99.90
18597;DHT22;9428;50.950;6.912;2023-08-06T08:06:23;16.80;99.90
18597;DHT22;9428;50.950;6.912;2023-08-06T08:09:10;16.80;99.90
18597;DHT22;9428;50.950;6.912;2023-08-06T08:11:59;16.90;99.90
18597;DHT22;9428;50.950;6.912;2023-08-06T08:14:48;17.00;99.90
18597;DHT22;9428;50.950;6.912;2023-08-06T08:17:35;17.00;99.90
18597;DHT22;9428;50.950;6.912;2023-08-06T08:20:24;17.00;99.90
18597;DHT22;9428;50.950;6.912;2023-08-06T08:23:13;17.20;99.90
18597;DHT22;9428;50.950;6.912;2023-08-06T08:26:00;17.20;99.90
18597;DHT22;9428;50.950;6.912;2023-08-06T08:28:49;17.30;99.90
18597;DHT22;9428;50.950;6.912;2023-08-06T08:31:36;17.20;99.90
18597;DHT22;9428;50.950;6.912;2023-08-06T08:34:25;17.00;99.90
18597;DHT22;9428;50.950;6.912;2023-08-06T08:37:14;17.20;99.90
18597;DHT22;9428;50.950;6.912;2023-08-06T08:40:01;17.40;99.90
18597;DHT22;9428;50.950;6.912;2023-08-06T08:42:49;17.40;99.90
18597;DHT22;9428;50.950;6.912;2023-08-06T08:45:39;17.40;99.90
18597;DHT22;9428;50.950;6.912;2023-08-06T08:48:27;17.50;99.90
18597;DHT22;9428;50.950;6.912;2023-08-06T08:51:16;17.50;99.90
18597;DHT22;9428;50.950;6.912;2023-08-06T08:54:07;17.50;99.90
18597;DHT22;9428;50.950;6.912;2023-08-06T08:56:55;17.70;99.90
18597;DHT22;9428;50.950;6.912;2023-08-06T08:59:42;17.70;99.90
18597;DHT22;9428;50.950;6.912;2023-08-06T09:02:31;17.70;99.90
18597;DHT22;9428;50.950;6.912;2023-08-06T09:05:20;17.70;99.90
18597;DHT22;9428;50.950;6.912;2023-08-06T09:08:12;17.40;99.90
18597;DHT22;9428;50.950;6.912;2023-08-06T09:11:05;17.30;99.90
18597;DHT22;9428;50.950;6.912;2023-08-06T09:13:53;17.20;99.90
18597;DHT22;9428;50.950;6.912;2023-08-06T09:16:41;17.40;99.90
18597;DHT22;9428;50.950;6.912;2023-08-06T09:19:29;17.40;99.90
18597;DHT22;9428;50.950;6.912;2023-08-06T09:22:16;17.50;99.90
18597;DHT22;9428;50.950;6.912;2023-08-06T09:25:04;17.60;99.90
18597;DHT22;9428;50.950;6.912;2023-08-06T09:27:56;17.50;99.90
18597;DHT22;9428;50.950;6.912;2023-08-06T09:30:47;17.10;99.90
18597;DHT22;9428;50.950;6.912;2023-08-06T09:33:36;17.10;99.90
18597;DHT22;9428;50.950;6.912;2023-08-06T09:36:24;16.90;99.90
18597;DHT22;9428;50.950;6.912;2023-08-06T09:39:15;17.00;99.90
18597;DHT22;9428;50.950;6.912;2023-08-06T09:42:03;17.00;99.90
18597;DHT22;9428;50.950;6.912;2023-08-06T09:44:53;17.10;99.90
18597;DHT22;9428;50.950;6.912;2023-08-06T09:47:43;17.20;99.90
18597;DHT22;9428;50.950;6.912;2023-08-06T09:50:32;17.30;99.90
18597;DHT22;9428;50.950;6.912;2023-08-06T09:53:19;17.30;99.90
18597;DHT22;9428;50.950;6.912;2023-08-06T09:56:07;17.40;99.90
18597;DHT22;9428;50.950;6.912;2023-08-06T09:58:55;17.50;99.90
18597;DHT22;9428;50.950;6.912;2023-08-06T10:01:45;17.50;99.90
18597;DHT22;9428;50.950;6.912;2023-08-06T10:04:33;17.40;99.90
18597;DHT22;9428;50.950;6.912;2023-08-06T10:07:21;17.00;99.90
18597;DHT22;9428;50.950;6.912;2023-08-06T10:10:10;16.80;99.90
18597;DHT22;9428;50.950;6.912;2023-08-06T10:12:58;16.60;99.90
18597;DHT22;9428;50.950;6.912;2023-08-06T10:15:46;16.30;99.90
18597;DHT22;9428;50.950;6.912;2023-08-06T10:18:36;16.20;99.90
18597;DHT22;9428;50.950;6.912;2023-08-06T10:21:24;16.10;99.90
18597;DHT22;9428;50.950;6.912;2023-08-06T10:24:14;16.10;99.90
18597;DHT22;9428;50.950;6.912;2023-08-06T10:27:01;15.90;99.90
18597;DHT22;9428;50.950;6.912;2023-08-06T10:29:48;15.90;99.90
18597;DHT22;9428;50.950;6.912;2023-08-06T10:32:47;15.90;99.90
18597;DHT22;9428;50.950;6.912;2023-08-06T10:35:37;15.90;99.90
18597;DHT22;9428;50.950;6.912;2023-08-06T10:38:25;15.90;99.90
18597;DHT22;9428;50.950;6.912;2023-08-06T10:41:23;15.90;99.90
18597;DHT22;9428;50.950;6.912;2023-08-06T10:44:14;16.00;99.90
18597;DHT22;9428;50.950;6.912;2023-08-06T10:47:25;15.90;99.90
18597;DHT22;9428;50.950;6.912;2023-08-06T10:50:14;15.60;99.90
18597;DHT22;9428;50.950;6.912;2023-08-06T10:53:05;15.50;99.90
18597;DHT22;9428;50.950;6.912;2023-08-06T10:55:54;15.40;99.90
18597;DHT22;9428;50.950;6.912;2023-08-06T10:58:41;15.40;99.90
18597;DHT22;9428;50.950;6.912;2023-08-06T11:01:29;15.40;99.90
18597;DHT22;9428;50.950;6.912;2023-08-06T11:04:16;15.40;99.90
18597;DHT22;9428;50.950;6.912;2023-08-06T11:07:06;15.40;99.90
18597;DHT22;9428;50.950;6.912;2023-08-06T11:10:01;15.50;99.90
18597;DHT22;9428;50.950;6.912;2023-08-06T11:12:48;15.40;99.90
18597;DHT22;9428;50.950;6.912;2023-08-06T11:15:36;15.90;99.90
18597;DHT22;9428;50.950;6.912;2023-08-06T11:18:23;15.50;99.90
18597;DHT22;9428;50.950;6.912;2023-08-06T11:21:11;15.50;99.90
18597;DHT22;9428;50.950;6.912;2023-08-06T11:23:58;15.50;99.90
18597;DHT22;9428;50.950;6.912;2023-08-06T11:26:47;15.50;99.90
18597;DHT22;9428;50.950;6.912;2023-08-06T11:29:37;15.60;99.90
18597;DHT22;9428;50.950;6.912;2023-08-06T11:32:24;15.60;99.90
18597;DHT22;9428;50.950;6.912;2023-08-06T11:35:14;15.80;99.90
18597;DHT22;9428;50.950;6.912;2023-08-06T11:38:01;15.80;99.90
18597;DHT22;9428;50.950;6.912;2023-08-06T11:40:49;15.80;99.90
18597;DHT22;9428;50.950;6.912;2023-08-06T11:43:38;15.40;99.90
18597;DHT22;9428;50.950;6.912;2023-08-06T11:46:26;15.80;99.90
18597;DHT22;9428;50.950;6.912;2023-08-06T11:49:13;16.10;99.90
18597;DHT22;9428;50.950;6.912;2023-08-06T11:52:02;16.00;99.90
18597;DHT22;9428;50.950;6.912;2023-08-06T11:55:03;15.90;99.90
18597;DHT22;9428;50.950;6.912;2023-08-06T11:57:52;15.90;99.90
18597;DHT22;9428;50.950;6.912;2023-08-06T12:00:42;16.00;99.90
18597;DHT22;9428;50.950;6.912;2023-08-06T12:03:29;16.10;99.90
18597;DHT22;9428;50.950;6.912;2023-08-06T12:06:17;16.20;99.90
18597;DHT22;9428;50.950;6.912;2023-08-06T12:09:04;16.00;99.90
18597;DHT22;9428;50.950;6.912;2023-08-06T12:11:52;16.40;99.90
18597;DHT22;9428;50.950;6.912;2023-08-06T12:14:39;16.30;99.90
18597;DHT22;9428;50.950;6.912;2023-08-06T12:17:28;16.50;99.90
18597;DHT22;9428;50.950;6.912;2023-08-06T12:20:15;16.50;99.90
18597;DHT22;9428;50.950;6.912;2023-08-06T12:23:02;16.40;99.90
18597;DHT22;9428;50.950;6.912;2023-08-06T12:25:49;16.40;99.90
18597;DHT22;9428;50.950;6.912;2023-08-06T12:28:37;16.50;99.90
18597;DHT22;9428;50.950;6.912;2023-08-06T12:31:24;16.50;99.90
18597;DHT22;9428;50.950;6.912;2023-08-06T12:34:13;16.40;99.90
18597;DHT22;9428;50.950;6.912;2023-08-06T12:37:00;16.30;99.90
18597;DHT22;9428;50.950;6.912;2023-08-06T12:39:47;16.20;99.90
18597;DHT22;9428;50.950;6.912;2023-08-06T12:42:34;16.10;99.90
18597;DHT22;9428;50.950;6.912;2023-08-06T12:45:22;16.10;99.90
18597;DHT22;9428;50.950;6.912;2023-08-06T12:48:09;15.90;99.90
18597;DHT22;9428;50.950;6.912;2023-08-06T12:50:58;16.10;99.90
18597;DHT22;9428;50.950;6.912;2023-08-06T12:53:45;16.20;99.90
18597;DHT22;9428;50.950;6.912;2023-08-06T12:56:34;16.20;99.90
18597;DHT22;9428;50.950;6.912;2023-08-06T12:59:22;16.30;99.90
18597;DHT22;9428;50.950;6.912;2023-08-06T13:02:09;16.40;99.90
18597;DHT22;9428;50.950;6.912;2023-08-06T13:04:56;16.40;99.90
18597;DHT22;9428;50.950;6.912;2023-08-06T13:07:45;16.50;99.90
18597;DHT22;9428;50.950;6.912;2023-08-06T13:10:32;16.50;99.90
18597;DHT22;9428;50.950;6.912;2023-08-06T13:13:19;16.50;99.90
18597;DHT22;9428;50.950;6.912;2023-08-06T13:16:07;16.60;99.90
18597;DHT22;9428;50.950;6.912;2023-08-06T13:18:54;16.70;99.90
18597;DHT22;9428;50.950;6.912;2023-08-06T13:22:02;16.60;99.90
18597;DHT22;9428;50.950;6.912;2023-08-06T13:24:51;16.60;99.90
18597;DHT22;9428;50.950;6.912;2023-08-06T13:27:38;16.60;99.90
18597;DHT22;9428;50.950;6.912;2023-08-06T13:30:26;16.50;99.90
18597;DHT22;9428;50.950;6.912;2023-08-06T13:33:13;16.40;99.90
18597;DHT22;9428;50.950;6.912;2023-08-06T13:36:00;16.20;99.90
18597;DHT22;9428;50.950;6.912;2023-08-06T13:38:47;16.20;99.90
18597;DHT22;9428;50.950;6.912;2023-08-06T13:41:37;16.20;99.90
18597;DHT22;9428;50.950;6.912;2023-08-06T13:44:24;16.00;99.90
18597;DHT22;9428;50.950;6.912;2023-08-06T13:47:11;15.90;99.90
18597;DHT22;9428;50.950;6.912;2023-08-06T13:49:59;16.00;99.90
18597;DHT22;9428;50.950;6.912;2023-08-06T13:52:46;16.00;99.90
18597;DHT22;9428;50.950;6.912;2023-08-06T13:55:33;15.90;99.90
18597;DHT22;9428;50.950;6.912;2023-08-06T13:58:22;16.10;99.90
18597;DHT22;9428;50.950;6.912;2023-08-06T14:01:10;16.10;99.90
18597;DHT22;9428;50.950;6.912;2023-08-06T14:03:59;16.10;99.90
18597;DHT22;9428;50.950;6.912;2023-08-06T14:06:46;16.20;99.90
18597;DHT22;9428;50.950;6.912;2023-08-06T14:09:33;16.30;99.90
18597;DHT22;9428;50.950;6.912;2023-08-06T14:12:20;16.60;99.90
18597;DHT22;9428;50.950;6.912;2023-08-06T14:15:11;16.60;99.90
18597;DHT22;9428;50.950;6.912;2023-08-06T14:17:58;16.20;99.90
18597;DHT22;9428;50.950;6.912;2023-08-06T14:20:48;16.30;99.90
18597;DHT22;9428;50.950;6.912;2023-08-06T14:23:35;16.30;99.90
18597;DHT22;9428;50.950;6.912;2023-08-06T14:26:22;16.40;99.90
18597;DHT22;9428;50.950;6.912;2023-08-06T14:29:10;16.30;99.90
18597;DHT22;9428;50.950;6.912;2023-08-06T14:31:59;16.20;99.90
18597;DHT22;9428;50.950;6.912;2023-08-06T14:34:46;16.20;99.90
18597;DHT22;9428;50.950;6.912;2023-08-06T14:37:33;16.10;99.90
18597;DHT22;9428;50.950;6.912;2023-08-06T14:40:21;16.10;99.90
18597;DHT22;9428;50.950;6.912;2023-08-06T14:43:09;16.20;99.90
18597;DHT22;9428;50.950;6.912;2023-08-06T14:45:56;16.20;99.90
18597;DHT22;9428;50.950;6.912;2023-08-06T14:48:45;16.30;99.90
18597;DHT22;9428;50.950;6.912;2023-08-06T14:51:32;16.30;99.90
18597;DHT22;9428;50.950;6.912;2023-08-06T14:54:19;16.40;99.90
18597;DHT22;9428;50.950;6.912;2023-08-06T14:57:06;16.40;99.90
18597;DHT22;9428;50.950;6.912;2023-08-06T14:59:54;16.50;99.90
18597;DHT22;9428;50.950;6.912;2023-08-06T15:02:41;16.70;99.90
18597;DHT22;9428;50.950;6.912;2023-08-06T15:05:30;16.60;99.90
18597;DHT22;9428;50.950;6.912;2023-08-06T15:08:17;16.80;99.90
18597;DHT22;9428;50.950;6.912;2023-08-06T15:11:05;16.90;99.90
18597;DHT22;9428;50.950;6.912;2023-08-06T15:13:52;16.70;99.90
18597;DHT22;9428;50.950;6.912;2023-08-06T15:16:39;16.60;99.90
18597;DHT22;9428;50.950;6.912;2023-08-06T15:19:27;16.60;99.90
18597;DHT22;9428;50.950;6.912;2023-08-06T15:22:15;16.40;99.90
18597;DHT22;9428;50.950;6.912;2023-08-06T15:25:03;16.60;99.90
18597;DHT22;9428;50.950;6.912;2023-08-06T15:27:50;16.60;99.90
18597;DHT22;9428;50.950;6.912;2023-08-06T15:30:38;16.70;99.90
18597;DHT22;9428;50.950;6.912;2023-08-06T15:33:26;16.80;99.90
18597;DHT22;9428;50.950;6.912;2023-08-06T15:36:13;16.60;99.90
18597;DHT22;9428;50.950;6.912;2023-08-06T15:39:06;16.70;99.90
18597;DHT22;9428;50.950;6.912;2023-08-06T15:41:53;16.60;99.90
18597;DHT22;9428;50.950;6.912;2023-08-06T15:44:43;16.50;99.90
18597;DHT22;9428;50.950;6.912;2023-08-06T15:47:30;16.60;99.90
18597;DHT22;9428;50.950;6.912;2023-08-06T15:50:18;16.50;99.90
18597;DHT22;9428;50.950;6.912;2023-08-06T15:53:05;16.60;99.90
18597;DHT22;9428;50.950;6.912;2023-08-06T15:55:54;16.60;99.90
18597;DHT22;9428;50.950;6.912;2023-08-06T15:58:41;16.60;99.90
18597;DHT22;9428;50.950;6.912;2023-08-06T16:01:29;16.40;99.90
18597;DHT22;9428;50.950;6.912;2023-08-06T16:04:16;16.20;99.90
18597;DHT22;9428;50.950;6.912;2023-08-06T16:07:03;16.10;99.90
18597;DHT22;9428;50.950;6.912;2023-08-06T16:09:51;16.10;99.90
18597;DHT22;9428;50.950;6.912;2023-08-06T16:12:40;16.00;99.90
18597;DHT22;9428;50.950;6.912;2023-08-06T16:15:28;16.10;99.90
18597;DHT22;9428;50.950;6.912;2023-08-06T16:18:16;16.30;99.90
18597;DHT22;9428;50.950;6.912;2023-08-06T16:21:03;16.00;99.90
18597;DHT22;9428;50.950;6.912;2023-08-06T16:23:51;16.00;99.90
18597;DHT22;9428;50.950;6.912;2023-08-06T16:26:38;16.00;99.90
18597;DHT22;9428;50.950;6.912;2023-08-06T16:29:26;15.70;99.90
18597;DHT22;9428;50.950;6.912;2023-08-06T16:32:14;15.90;99.90
18597;DHT22;9428;50.950;6.912;2023-08-06T16:35:01;15.70;99.90
18597;DHT22;9428;50.950;6.912;2023-08-06T16:37:48;16.00;99.90
18597;DHT22;9428;50.950;6.912;2023-08-06T16:40:35;16.00;99.90
18597;DHT22;9428;50.950;6.912;2023-08-06T16:43:23;15.90;99.90
18597;DHT22;9428;50.950;6.912;2023-08-06T16:46:11;15.90;99.90
18597;DHT22;9428;50.950;6.912;2023-08-06T16:48:59;15.70;99.90
18597;DHT22;9428;50.950;6.912;2023-08-06T16:51:46;16.10;99.90
18597;DHT22;9428;50.950;6.912;2023-08-06T16:54:33;16.10;99.90
18597;DHT22;9428;50.950;6.912;2023-08-06T16:57:20;15.80;99.90
18597;DHT22;9428;50.950;6.912;2023-08-06T17:00:08;15.90;99.90
18597;DHT22;9428;50.950;6.912;2023-08-06T17:02:57;15.80;99.90
18597;DHT22;9428;50.950;6.912;2023-08-06T17:05:44;15.90;99.90
18597;DHT22;9428;50.950;6.912;2023-08-06T17:08:32;15.90;99.90
18597;DHT22;9428;50.950;6.912;2023-08-06T17:11:20;16.00;99.90
18597;DHT22;9428;50.950;6.912;2023-08-06T17:14:07;16.10;99.90
18597;DHT22;9428;50.950;6.912;2023-08-06T17:16:54;16.00;99.90
18597;DHT22;9428;50.950;6.912;2023-08-06T17:19:43;16.30;99.90
18597;DHT22;9428;50.950;6.912;2023-08-06T17:22:30;16.00;99.90
18597;DHT22;9428;50.950;6.912;2023-08-06T17:25:17;16.00;99.90
18597;DHT22;9428;50.950;6.912;2023-08-06T17:28:06;16.00;99.90
18597;DHT22;9428;50.950;6.912;2023-08-06T17:30:54;15.90;99.90
18597;DHT22;9428;50.950;6.912;2023-08-06T17:33:42;15.90;99.90
18597;DHT22;9428;50.950;6.912;2023-08-06T17:36:31;15.80;99.90
18597;DHT22;9428;50.950;6.912;2023-08-06T17:39:19;15.70;99.90
18597;DHT22;9428;50.950;6.912;2023-08-06T17:42:06;15.80;99.90
18597;DHT22;9428;50.950;6.912;2023-08-06T17:44:56;15.80;99.90
18597;DHT22;9428;50.950;6.912;2023-08-06T17:47:43;15.80;99.90
18597;DHT22;9428;50.950;6.912;2023-08-06T17:50:30;15.90;99.90
18597;DHT22;9428;50.950;6.912;2023-08-06T17:53:19;15.80;99.90
18597;DHT22;9428;50.950;6.912;2023-08-06T17:56:06;15.70;99.90
18597;DHT22;9428;50.950;6.912;2023-08-06T17:58:53;15.70;99.90